sim
Sign-in with your pilot id or email,
or register
Callsign
Passwort

Schedule Details

Flight Number: DLH1897
Departure: Turin Caselle Airport (LIMF) at 12:05
Arrival: Munich Airport (EDDM) at 13:15
Route: Lufthansa Passenger Schedule. Enter filed route here before submitting Pirep.

Weather Information
Getting current METAR information for LIMF 210220Z 27010KT 2000 +TSRA FEW015CB BKN035 BKN050 17/16 Q1016
Getting current METAR information for EDDM 210220Z VRB02KT CAVOK 09/09 Q1016 NOSIG

Schedule Frequency

Route Map